createdAt,value
2022-12-19T00:01:36.785Z,100000.75
2022-12-19T00:04:09.407Z,100002.53
2022-12-19T00:06:37.995Z,99988.84
2022-12-19T00:09:10.447Z,99987.13
2022-12-19T00:11:38.870Z,99983.78
2022-12-19T00:14:06.212Z,99989.53
2022-12-19T00:16:33.246Z,99983.63
2022-12-19T00:19:00.967Z,99988.56
2022-12-19T00:21:29.628Z,99986.75
2022-12-19T00:23:56.752Z,99986.09
2022-12-19T00:26:26.589Z,99988.78
2022-12-19T00:28:55.144Z,99985.28
2022-12-19T00:31:24.998Z,99986.13
2022-12-19T00:33:51.965Z,99983.41
2022-12-19T00:36:38.970Z,99975.66
2022-12-19T00:39:08.388Z,99972.38
2022-12-19T00:41:37.267Z,99967.72
2022-12-19T00:44:10.245Z,99965.03
2022-12-19T00:46:37.384Z,99967.88
2022-12-19T00:49:04.974Z,99967.03
2022-12-19T00:51:33.866Z,99971.38
2022-12-19T00:54:01.535Z,99967.72
2022-12-19T00:56:37.269Z,99960.81
2022-12-19T00:59:05.474Z,99960.97
2022-12-19T01:01:38.026Z,99948.25
2022-12-19T01:06:53.489Z,99933.44
2022-12-19T01:09:21.928Z,99940.97
2022-12-19T01:12:07.326Z,99944.41
2022-12-19T01:14:34.405Z,99942.63
2022-12-19T01:17:01.132Z,99940.28
2022-12-19T01:19:28.383Z,99947.50
2022-12-19T01:21:55.238Z,99952.03
2022-12-19T01:24:22.289Z,99957.63
2022-12-19T01:26:49.060Z,99958.31
2022-12-19T01:29:15.780Z,99947.31
2022-12-19T01:31:42.627Z,99949.19
2022-12-19T01:34:09.494Z,99947.50
2022-12-19T01:36:40.228Z,99949.78
2022-12-19T01:39:07.638Z,99951.28
2022-12-19T01:41:34.597Z,99947.09
2022-12-19T01:44:02.286Z,99949.56
2022-12-19T01:46:50.664Z,99947.00
2022-12-19T01:49:29.362Z,99944.72
2022-12-19T01:51:59.106Z,99943.81
2022-12-19T01:54:31.835Z,99948.97
2022-12-19T01:56:59.441Z,99950.59
2022-12-19T01:59:30.041Z,99953.81
2022-12-19T02:02:02.264Z,99956.84
2022-12-19T02:04:32.539Z,99960.91
2022-12-19T02:07:00.135Z,99948.91
2022-12-19T02:09:34.354Z,99958.34
2022-12-19T02:12:01.275Z,99953.06
2022-12-19T02:14:28.313Z,99937.19
2022-12-19T02:17:03.354Z,99940.97
2022-12-19T02:20:29.425Z,99928.06
2022-12-19T02:23:36.540Z,99926.59
2022-12-19T02:26:53.893Z,99923.84
2022-12-19T02:29:30.494Z,99913.44
2022-12-19T02:32:21.697Z,99909.03
2022-12-19T02:35:08.471Z,99906.25
2022-12-19T02:37:39.386Z,99905.44
2022-12-19T02:40:11.145Z,99902.53
2022-12-19T02:42:44.375Z,99905.44
2022-12-19T02:45:22.758Z,99900.19
2022-12-19T02:47:56.289Z,99899.16
2022-12-19T02:50:23.341Z,99884.50
2022-12-19T02:52:50.187Z,99878.56
2022-12-19T02:55:20.814Z,99879.13
2022-12-19T02:58:09.820Z,99878.28
2022-12-19T03:00:42.778Z,99883.59
2022-12-19T03:03:15.772Z,99885.22
2022-12-19T03:06:09.097Z,99883.53
2022-12-19T03:08:47.955Z,99891.16
2022-12-19T03:11:15.762Z,99885.19
2022-12-19T03:13:54.719Z,99882.38
2022-12-19T03:16:21.571Z,99886.28
2022-12-19T03:18:48.478Z,99871.66
2022-12-19T03:21:22.424Z,99872.44
2022-12-19T03:23:51.128Z,99874.13
2022-12-19T03:26:22.164Z,99876.75
2022-12-19T03:28:54.379Z,99874.34
2022-12-19T03:31:23.854Z,99887.19
2022-12-19T03:33:55.934Z,99888.50
2022-12-19T03:36:28.066Z,99880.91
2022-12-19T03:38:56.237Z,99874.47
2022-12-19T03:41:45.086Z,99879.38
2022-12-19T03:44:14.311Z,99878.69
2022-12-19T03:46:44.021Z,99884.72
2022-12-19T03:49:10.961Z,99873.63
2022-12-19T03:52:16.505Z,99871.44
2022-12-19T03:54:52.530Z,99860.34
2022-12-19T03:57:52.983Z,99867.03
2022-12-19T04:00:20.887Z,99859.22
2022-12-19T04:02:50.277Z,99865.69
2022-12-19T04:05:25.698Z,99859.34
2022-12-19T04:07:55.600Z,99852.16
2022-12-19T04:10:25.191Z,99854.97
2022-12-19T04:12:56.649Z,99851.41
2022-12-19T04:15:32.366Z,99845.75
2022-12-19T04:18:00.206Z,99842.44
2022-12-19T04:20:27.697Z,99841.84
2022-12-19T04:23:00.454Z,99825.56
2022-12-19T04:25:32.831Z,99817.81
2022-12-19T04:28:06.770Z,99810.91
2022-12-19T04:30:36.493Z,99799.91
2022-12-19T04:33:04.235Z,99796.47
2022-12-19T04:35:31.884Z,99808.41
2022-12-19T04:37:58.770Z,99819.38
2022-12-19T04:40:25.579Z,99819.66
2022-12-19T04:42:52.449Z,99817.00
2022-12-19T04:45:19.281Z,99809.28
2022-12-19T04:47:46.079Z,99814.13
2022-12-19T04:50:12.979Z,99802.00
2022-12-19T04:52:39.978Z,99799.41
2022-12-19T04:55:07.813Z,99803.75
2022-12-19T04:57:34.578Z,99803.13
2022-12-19T05:00:04.009Z,99803.44
2022-12-19T05:02:31.190Z,99797.88
2022-12-19T05:04:58.132Z,99799.66
2022-12-19T05:07:24.906Z,99794.63
2022-12-19T05:09:51.610Z,99796.28
2022-12-19T05:12:18.471Z,99794.34
2022-12-19T05:14:45.854Z,99796.03
2022-12-19T05:17:12.688Z,99796.06
2022-12-19T05:19:39.431Z,99791.00
2022-12-19T05:22:06.301Z,99786.97
2022-12-19T05:24:33.132Z,99785.19
2022-12-19T05:27:00.267Z,99781.75
2022-12-19T05:29:27.101Z,99786.97
2022-12-19T05:31:53.955Z,99772.13
2022-12-19T05:34:20.936Z,99785.03
2022-12-19T05:36:47.668Z,99775.47
2022-12-19T05:39:14.483Z,99768.41
2022-12-19T05:41:41.638Z,99762.25
2022-12-19T05:44:09.687Z,99770.72
2022-12-19T05:46:36.713Z,99761.19
2022-12-19T05:49:03.635Z,99751.75
2022-12-19T05:51:31.050Z,99761.25
2022-12-19T05:53:57.805Z,99753.44
2022-12-19T05:56:24.654Z,99753.16
2022-12-19T05:58:51.816Z,99753.41
2022-12-19T06:01:21.495Z,99762.09
2022-12-19T06:03:49.364Z,99766.06
2022-12-19T06:06:18.993Z,99760.34
2022-12-19T06:08:45.954Z,99770.00
2022-12-19T06:11:14.068Z,99765.28
2022-12-19T06:13:41.473Z,99774.56
2022-12-19T06:16:13.138Z,99778.00
2022-12-19T06:18:44.713Z,99772.34
2022-12-19T06:21:20.301Z,99782.81
2022-12-19T06:23:47.544Z,99770.50
2022-12-19T06:26:19.395Z,99774.47
2022-12-19T06:28:48.195Z,99769.06
2022-12-19T06:31:15.984Z,99777.66
2022-12-19T06:33:42.825Z,99763.16
2022-12-19T06:36:16.953Z,99767.19
2022-12-19T06:38:43.649Z,99759.72
2022-12-19T06:41:29.915Z,99762.03
2022-12-19T06:44:06.552Z,99765.63
2022-12-19T06:46:33.886Z,99750.88
2022-12-19T06:49:01.533Z,99738.38
2022-12-19T06:51:29.057Z,99750.28
2022-12-19T06:53:56.036Z,99742.91
2022-12-19T06:56:23.175Z,99751.75
2022-12-19T06:58:50.672Z,99745.31
2022-12-19T07:01:41.218Z,99751.72
2022-12-19T07:04:09.717Z,99743.44
2022-12-19T07:06:36.621Z,99744.09
2022-12-19T07:09:03.399Z,99754.34
2022-12-19T07:11:30.143Z,99757.50
2022-12-19T07:13:56.901Z,99763.84
2022-12-19T07:16:24.690Z,99764.38
2022-12-19T07:18:51.570Z,99764.09
2022-12-19T07:21:18.407Z,99765.09
2022-12-19T07:23:45.416Z,99775.94
2022-12-19T07:26:12.502Z,99770.06
2022-12-19T07:28:39.637Z,99775.25
2022-12-19T07:31:06.446Z,99775.16
2022-12-19T07:33:34.077Z,99775.22
2022-12-19T07:36:00.867Z,99779.41
2022-12-19T07:38:27.697Z,99772.25
2022-12-19T07:40:54.429Z,99769.25
2022-12-19T07:43:21.260Z,99761.56
2022-12-19T07:45:54.658Z,99764.81
2022-12-19T07:48:21.526Z,99771.03
2022-12-19T07:50:49.262Z,99785.47
2022-12-19T07:53:16.688Z,99775.94
2022-12-19T07:55:43.518Z,99768.31
2022-12-19T07:58:11.292Z,99786.41
2022-12-19T08:00:38.428Z,99782.00
2022-12-19T08:03:05.323Z,99784.66
2022-12-19T08:05:34.846Z,99787.09
2022-12-19T08:08:01.672Z,99788.91
2022-12-19T08:10:28.520Z,99795.19
2022-12-19T08:12:55.626Z,99802.72
2022-12-19T08:15:22.566Z,99806.13
2022-12-19T08:17:49.557Z,99799.41
2022-12-19T08:20:16.379Z,99793.28
2022-12-19T08:22:43.438Z,99790.81
2022-12-19T08:25:10.369Z,99787.47
2022-12-19T08:27:37.909Z,99789.97
2022-12-19T08:30:05.687Z,99798.56
2022-12-19T08:32:32.854Z,99800.34
2022-12-19T08:34:59.872Z,99804.72
2022-12-19T08:37:26.804Z,99796.03
2022-12-19T08:39:53.565Z,99802.84
2022-12-19T08:42:20.341Z,99813.75
2022-12-19T08:44:47.130Z,99809.78
2022-12-19T08:47:14.176Z,99810.78
2022-12-19T08:49:41.350Z,99803.22
2022-12-19T08:52:08.207Z,99801.19
2022-12-19T08:54:35.181Z,99789.09
2022-12-19T08:57:01.929Z,99806.13
2022-12-19T08:59:31.830Z,99790.88
2022-12-19T09:02:00.877Z,99792.34
2022-12-19T09:06:00.267Z,99783.63
2022-12-19T09:07:16.292Z,99786.13
2022-12-19T09:09:44.329Z,99785.38
2022-12-19T09:12:13.022Z,99783.47
2022-12-19T09:14:39.839Z,99784.59
2022-12-19T09:17:06.860Z,99787.81
2022-12-19T09:19:33.885Z,99786.09
2022-12-19T09:22:00.657Z,99779.97
2022-12-19T09:24:27.563Z,99786.66
2022-12-19T09:26:54.421Z,99774.56
2022-12-19T09:29:21.977Z,99769.38
2022-12-19T09:31:55.412Z,99766.78
2022-12-19T09:34:36.900Z,99773.63
2022-12-19T09:37:16.087Z,99777.72
2022-12-19T09:39:45.401Z,99766.53
2022-12-19T09:42:21.654Z,99768.75
2022-12-19T09:45:05.927Z,99770.28
2022-12-19T09:47:34.949Z,99764.09
2022-12-19T09:50:02.130Z,99762.28
2022-12-19T09:52:44.037Z,99760.66
2022-12-19T09:55:25.126Z,99762.13
2022-12-19T09:57:59.833Z,99757.78
2022-12-19T10:00:35.466Z,99750.19
2022-12-19T10:03:14.381Z,99757.69
2022-12-19T10:07:06.790Z,99748.06
2022-12-19T10:09:17.094Z,99741.16
2022-12-19T10:12:47.795Z,99747.09
2022-12-19T10:15:12.534Z,99749.31
2022-12-19T10:18:27.067Z,99732.66
2022-12-19T10:21:37.025Z,99727.63
2022-12-19T10:24:38.347Z,99734.66
2022-12-19T10:27:36.559Z,99729.31
2022-12-19T10:30:16.917Z,99726.22
2022-12-19T10:33:25.649Z,99727.38
2022-12-19T10:36:02.218Z,99725.56
2022-12-19T10:38:35.071Z,99728.03
2022-12-19T10:44:08.127Z,99703.66
2022-12-19T10:54:51.597Z,99689.34
2022-12-19T10:57:28.472Z,99694.13
2022-12-19T11:00:05.076Z,99693.06
2022-12-19T11:02:41.491Z,99691.28
2022-12-19T11:05:30.902Z,99703.88
2022-12-19T11:08:14.971Z,99698.78
2022-12-19T11:12:25.266Z,99690.16
2022-12-19T11:18:09.784Z,99694.38
2022-12-19T11:22:13.539Z,99693.41
2022-12-19T11:29:26.119Z,99683.72
2022-12-19T11:29:53.409Z,99681.91
2022-12-19T11:30:09.085Z,99674.53
2022-12-19T11:30:38.459Z,99672.59
2022-12-19T11:32:31.510Z,99671.69
2022-12-19T11:34:19.102Z,99673.63
2022-12-19T11:37:16.267Z,99665.56
2022-12-19T11:39:47.972Z,99656.06
2022-12-19T11:42:26.160Z,99650.81
2022-12-19T11:45:01.724Z,99642.97
2022-12-19T11:47:38.811Z,99648.16
2022-12-19T11:50:27.728Z,99641.94
2022-12-19T11:53:24.055Z,99648.84
2022-12-19T11:56:16.276Z,99646.34
2022-12-19T11:58:49.211Z,99642.88
2022-12-19T12:01:43.584Z,99633.78
2022-12-19T12:04:29.061Z,99636.38
2022-12-19T12:06:56.919Z,99632.38
2022-12-19T12:13:47.757Z,99636.28
2022-12-19T12:20:18.504Z,99628.41
2022-12-19T12:25:13.488Z,99615.41
2022-12-19T12:31:15.116Z,99609.69
2022-12-19T12:31:26.509Z,99622.91
2022-12-19T12:31:53.469Z,99597.16
2022-12-19T12:32:02.054Z,99605.50
2022-12-19T12:38:37.164Z,99607.56
2022-12-19T12:41:42.387Z,99597.44
2022-12-19T12:44:12.036Z,99596.88
2022-12-19T12:47:22.210Z,99591.97
2022-12-19T12:50:01.255Z,99590.19
2022-12-19T12:52:39.836Z,99587.09
2022-12-19T12:55:15.848Z,99586.47
2022-12-19T12:57:42.713Z,99584.03
2022-12-19T13:00:20.533Z,99589.13
2022-12-19T13:02:54.466Z,99591.34
2022-12-19T13:05:34.299Z,99584.44
2022-12-19T13:08:01.285Z,99590.53
2022-12-19T13:10:30.583Z,99589.06
2022-12-19T13:13:14.604Z,99581.91
2022-12-19T13:15:46.140Z,99591.50
2022-12-19T13:18:16.159Z,99588.22
2022-12-19T13:20:46.200Z,99586.97
2022-12-19T13:23:58.231Z,99592.97
2022-12-19T13:26:46.727Z,99581.78
2022-12-19T13:29:28.098Z,99568.94
2022-12-19T13:32:12.832Z,99572.44
2022-12-19T13:34:41.575Z,99580.13
2022-12-19T13:39:55.755Z,99587.59
2022-12-19T13:40:33.476Z,99590.94
2022-12-19T13:43:48.095Z,99596.34
2022-12-19T13:46:45.091Z,99586.00
2022-12-19T13:49:17.778Z,99592.84
2022-12-19T13:51:52.500Z,99595.47
2022-12-19T13:54:26.155Z,99591.91
2022-12-19T13:56:53.871Z,99587.59
2022-12-19T13:59:22.788Z,99582.25
2022-12-19T14:01:51.478Z,99580.66
2022-12-19T14:04:32.504Z,99580.81
2022-12-19T14:07:04.701Z,99573.94
2022-12-19T14:11:28.879Z,99580.59
2022-12-19T14:13:46.228Z,99567.38
2022-12-19T14:15:41.690Z,99571.56
2022-12-19T14:18:42.754Z,99575.69
2022-12-19T14:22:10.961Z,99588.75
2022-12-19T14:24:24.423Z,99582.53
2022-12-19T14:28:24.278Z,99580.69
2022-12-19T14:30:27.558Z,99591.22
2022-12-19T14:33:43.767Z,99583.16
2022-12-19T14:36:06.158Z,99567.41
2022-12-19T14:39:21.194Z,99575.31
2022-12-19T14:41:08.223Z,99579.94
2022-12-19T14:43:59.059Z,99587.34
2022-12-19T14:54:08.628Z,99582.16
2022-12-19T14:54:09.038Z,99577.75
2022-12-19T14:54:50.452Z,99568.25
2022-12-19T14:56:13.131Z,99570.09
2022-12-19T14:58:56.225Z,99571.94
2022-12-19T15:01:36.567Z,99568.31
2022-12-19T15:04:48.163Z,99571.19
2022-12-19T15:07:08.033Z,99561.47
2022-12-19T15:11:00.283Z,99562.31
2022-12-19T15:14:54.652Z,99571.81
2022-12-19T15:16:06.299Z,99583.22
2022-12-19T15:18:42.870Z,99572.66
2022-12-19T15:21:14.656Z,99565.97
2022-12-19T15:23:42.292Z,99573.09
2022-12-19T15:26:16.164Z,99568.69
2022-12-19T15:28:53.550Z,99560.16
2022-12-19T15:31:40.044Z,99559.09
2022-12-19T15:34:48.374Z,99557.41
2022-12-19T15:37:15.519Z,99559.78
2022-12-19T15:39:43.475Z,99567.50
2022-12-19T15:42:22.933Z,99571.94
2022-12-19T15:44:50.109Z,99565.63
2022-12-19T15:47:20.007Z,99565.34
2022-12-19T15:49:47.364Z,99574.47
2022-12-19T15:52:19.136Z,99563.50
2022-12-19T15:54:48.556Z,99577.97
2022-12-19T15:57:42.229Z,99567.63
2022-12-19T16:00:32.296Z,99570.16
2022-12-19T16:03:22.898Z,99567.63
2022-12-19T16:05:51.789Z,99570.56
2022-12-19T16:08:21.073Z,99566.09
2022-12-19T16:10:56.014Z,99573.16
2022-12-19T16:13:31.085Z,99559.25
2022-12-19T16:15:58.331Z,99555.59
2022-12-19T16:18:25.315Z,99545.19
2022-12-19T16:20:52.191Z,99540.06
2022-12-19T16:23:19.718Z,99531.41
2022-12-19T16:25:50.684Z,99540.06
2022-12-19T16:28:26.935Z,99542.19
2022-12-19T16:30:56.639Z,99546.31
2022-12-19T16:33:25.780Z,99544.41
2022-12-19T16:36:03.942Z,99554.06
2022-12-19T16:38:31.385Z,99554.91
2022-12-19T16:40:58.246Z,99540.22
2022-12-19T16:43:36.393Z,99541.75
2022-12-19T16:46:06.112Z,99521.97
2022-12-19T16:48:35.860Z,99516.16
2022-12-19T16:51:03.027Z,99520.16
2022-12-19T16:53:30.059Z,99522.47
2022-12-19T16:55:57.652Z,99528.78
2022-12-19T16:58:26.975Z,99518.19
2022-12-19T17:00:57.454Z,99515.47
2022-12-19T17:03:36.524Z,99511.00
2022-12-19T17:06:04.106Z,99504.16
2022-12-19T17:08:32.541Z,99499.97
2022-12-19T17:10:59.395Z,99496.88
2022-12-19T17:13:26.546Z,99509.25
2022-12-19T17:15:57.057Z,99516.59
2022-12-19T17:18:28.837Z,99507.16
2022-12-19T17:20:55.667Z,99496.13
2022-12-19T17:23:24.100Z,99494.66
2022-12-19T17:25:51.170Z,99490.22
2022-12-19T17:28:18.367Z,99499.84
2022-12-19T17:30:50.220Z,99494.53
2022-12-19T17:33:17.649Z,99497.34
2022-12-19T17:35:45.152Z,99496.19
2022-12-19T17:38:17.251Z,99492.63
2022-12-19T17:40:44.169Z,99485.84
2022-12-19T17:43:12.800Z,99483.34
2022-12-19T17:45:39.782Z,99484.53
2022-12-19T17:48:14.894Z,99489.50
2022-12-19T17:50:42.153Z,99489.94
2022-12-19T17:53:14.154Z,99489.94
2022-12-19T17:55:41.859Z,99485.81
2022-12-19T17:58:10.197Z,99488.25
2022-12-19T18:00:37.418Z,99480.34
2022-12-19T18:03:16.911Z,99473.50
2022-12-19T18:05:43.935Z,99483.06
2022-12-19T18:08:43.255Z,99488.38
2022-12-19T18:11:28.357Z,99494.59
2022-12-19T18:13:55.334Z,99508.44
2022-12-19T18:16:27.272Z,99496.88
2022-12-19T18:18:54.387Z,99494.66
2022-12-19T18:21:24.388Z,99495.63
2022-12-19T18:23:54.183Z,99498.22
2022-12-19T18:26:20.870Z,99504.50
2022-12-19T18:28:48.003Z,99500.72
2022-12-19T18:31:26.067Z,99509.06
2022-12-19T18:33:54.434Z,99496.25
2022-12-19T18:36:22.871Z,99493.59
2022-12-19T18:38:50.153Z,99500.66
2022-12-19T18:41:18.318Z,99515.91
2022-12-19T18:43:45.638Z,99510.91
2022-12-19T18:46:15.339Z,99517.91
2022-12-19T18:48:44.082Z,99523.50
2022-12-19T18:51:19.238Z,99524.06
2022-12-19T18:53:46.692Z,99526.72
2022-12-19T18:56:13.771Z,99535.66
2022-12-19T18:58:40.910Z,99531.47
2022-12-19T19:01:12.995Z,99522.59
2022-12-19T19:03:40.534Z,99533.41
2022-12-19T19:06:18.616Z,99534.97
2022-12-19T19:08:45.769Z,99526.06
2022-12-19T19:11:12.786Z,99514.91
2022-12-19T19:13:39.472Z,99509.09
2022-12-19T19:16:20.981Z,99505.59
2022-12-19T19:18:51.472Z,99503.94
2022-12-19T19:21:19.321Z,99506.97
2022-12-19T19:23:50.019Z,99499.00
2022-12-19T19:26:16.762Z,99487.00
2022-12-19T19:28:48.573Z,99482.50
2022-12-19T19:31:20.523Z,99491.94
2022-12-19T19:33:51.192Z,99474.34
2022-12-19T19:36:20.961Z,99485.00
2022-12-19T19:38:50.368Z,99491.88
2022-12-19T19:41:21.284Z,99504.19
2022-12-19T19:43:48.017Z,99501.50
2022-12-19T19:46:14.922Z,99490.72
2022-12-19T19:48:42.835Z,99501.94
2022-12-19T19:51:09.701Z,99490.34
2022-12-19T19:53:36.565Z,99506.69
2022-12-19T19:56:05.047Z,99502.94
2022-12-19T19:58:32.331Z,99503.25
2022-12-19T20:00:59.163Z,99515.25
2022-12-19T20:03:26.560Z,99513.66
2022-12-19T20:06:02.258Z,99525.19
2022-12-19T20:08:36.855Z,99527.28
2022-12-19T20:11:06.079Z,99541.41
2022-12-19T20:13:33.183Z,99536.16
2022-12-19T20:16:11.844Z,99533.00
2022-12-19T20:18:41.582Z,99533.78
2022-12-19T20:21:12.961Z,99538.75
2022-12-19T20:23:41.148Z,99541.22
2022-12-19T20:26:08.303Z,99537.16
2022-12-19T20:28:35.204Z,99530.94
2022-12-19T20:31:02.096Z,99525.03
2022-12-19T20:33:28.931Z,99520.59
2022-12-19T20:35:57.069Z,99517.69
2022-12-19T20:38:24.395Z,99522.81
2022-12-19T20:40:56.075Z,99522.72
2022-12-19T20:43:23.707Z,99537.06
2022-12-19T20:45:50.802Z,99532.03
2022-12-19T20:48:17.917Z,99533.19
2022-12-19T20:50:44.876Z,99537.63
2022-12-19T20:53:11.819Z,99547.00
2022-12-19T20:55:38.623Z,99537.94
2022-12-19T20:58:05.395Z,99538.09
2022-12-19T21:00:32.339Z,99535.22
2022-12-19T21:03:27.206Z,99524.13
2022-12-19T21:05:53.771Z,99516.94
2022-12-19T21:08:24.658Z,99527.84
2022-12-19T21:10:51.625Z,99525.94
2022-12-19T21:13:18.444Z,99537.19
2022-12-19T21:15:45.564Z,99532.94
2022-12-19T21:18:12.531Z,99538.75
2022-12-19T21:20:39.335Z,99538.28
2022-12-19T21:23:06.075Z,99539.66
2022-12-19T21:25:32.803Z,99544.97
2022-12-19T21:27:59.613Z,99548.66
2022-12-19T21:30:26.336Z,99541.81
2022-12-19T21:32:53.041Z,99539.03
2022-12-19T21:35:19.744Z,99539.34
2022-12-19T21:37:50.278Z,99546.88
2022-12-19T21:40:20.566Z,99542.00
2022-12-19T21:42:47.695Z,99541.88
2022-12-19T21:45:15.240Z,99534.72
2022-12-19T21:47:43.211Z,99533.94
2022-12-19T21:50:12.589Z,99532.63
2022-12-19T21:52:39.385Z,99530.03
2022-12-19T21:55:07.526Z,99536.31
2022-12-19T21:57:38.956Z,99532.13
2022-12-19T22:00:07.479Z,99529.59
2022-12-19T22:02:34.442Z,99532.81
2022-12-19T22:05:01.441Z,99531.22
2022-12-19T22:07:28.186Z,99528.69
2022-12-19T22:09:55.740Z,99534.63
2022-12-19T22:12:22.455Z,99529.38
2022-12-19T22:14:49.160Z,99523.34
2022-12-19T22:17:16.009Z,99523.72
2022-12-19T22:19:42.829Z,99512.16
2022-12-19T22:22:09.503Z,99501.63
2022-12-19T22:24:36.527Z,99498.22
2022-12-19T22:27:03.213Z,99491.38
2022-12-19T22:29:30.071Z,99492.00
2022-12-19T22:31:56.874Z,99481.84
2022-12-19T22:34:23.574Z,99483.81
2022-12-19T22:36:50.345Z,99480.31
2022-12-19T22:39:19.225Z,99479.81
2022-12-19T22:41:46.241Z,99479.19
2022-12-19T22:44:19.251Z,99471.28
2022-12-19T22:46:46.339Z,99461.81
2022-12-19T22:49:14.180Z,99472.72
2022-12-19T22:51:41.547Z,99473.84
2022-12-19T22:54:08.445Z,99463.66
2022-12-19T22:56:35.684Z,99449.56
2022-12-19T22:59:05.531Z,99457.94
2022-12-19T23:01:38.794Z,99451.69
2022-12-19T23:04:07.196Z,99452.69
2022-12-19T23:06:35.908Z,99452.69
2022-12-19T23:09:03.724Z,99462.91
2022-12-19T23:11:36.720Z,99485.88
2022-12-19T23:14:08.194Z,99471.44
2022-12-19T23:16:35.344Z,99459.34
2022-12-19T23:19:02.741Z,99454.66
2022-12-19T23:21:30.842Z,99468.44
2022-12-19T23:23:57.559Z,99452.06
2022-12-19T23:26:30.450Z,99447.66
2022-12-19T23:29:02.477Z,99446.28
2022-12-19T23:31:30.087Z,99451.28
2022-12-19T23:33:57.610Z,99451.28
2022-12-19T23:36:52.695Z,99455.78
2022-12-19T23:39:12.074Z,99456.31
2022-12-19T23:41:39.581Z,99452.22
2022-12-19T23:44:08.888Z,99450.50
2022-12-19T23:46:38.725Z,99458.22
2022-12-19T23:49:05.882Z,99451.19
2022-12-19T23:51:32.956Z,99450.44
2022-12-19T23:53:59.691Z,99450.34
2022-12-19T23:56:28.782Z,99443.47
2022-12-19T23:58:55.866Z,99442.47
